Centre Harbor, New Hampshire
Current Conditions -  °F | °C
As of 11:35 PM on Saturday 25 Oct 2014 (Local Time) from KLCI Reporting Station
Overcast Overcast  
Wind Chill: 52°   Ceiling: 6000
Heat Index: 52°   Visibility: 10mi
Dew Point: 45°   Wind: 10mph
Humidity: 76%   Direction: 240°WSW
Pressure: 29.45"   Gusts: NA
Location:  43.7121°N, 71.4886°W
Report Text: KLCI 260335Z AUTO 24009KT 10SM FEW050 OVC060 11/07 A2945 RMK AO1
Loading
Personal Weather Stations






























Interactive Weather Map
Tropical Storm Tracking
New forecast layout! Learn more

10-Day Weather Forecast

Advertisements
Track Severe Weather on mobile